Time;durP1;ratioP1;P1;durP2;ratioP2;P2;SDS_P1;SDS_P2;PMS_P1;PMS_P2;Temp;Humidity;BMP_temperature;BMP_pressure;BME280_temperature;BME280_humidity;BME280_pressure;Samples;Min_cycle;Max_cycle;Signal;HPM_P1;HPM_P2
2021/03/22 00:00:08;;;;;;;8.32;1.88;;;17.60;52.90;;;;;;5057719;28;20029;-73
2021/03/22 00:02:34;;;;;;;6.90;2.03;;;17.60;52.90;;;;;;5057636;28;20040;-73
2021/03/22 00:04:59;;;;;;;6.85;1.70;;;17.50;52.90;;;;;;5057612;28;20025;-71
2021/03/22 00:07:25;;;;;;;12.10;2.60;;;17.50;52.90;;;;;;5057712;28;20504;-71
2021/03/22 00:09:50;;;;;;;5.88;1.95;;;17.50;53.00;;;;;;5057178;28;20112;-73
2021/03/22 00:12:16;;;;;;;8.25;1.92;;;17.40;52.90;;;;;;5057606;28;20397;-71
2021/03/22 00:14:42;;;;;;;5.15;1.65;;;17.50;53.30;;;;;;5057747;28;20059;-71
2021/03/22 00:17:07;;;;;;;8.52;1.75;;;17.40;52.90;;;;;;5057513;28;20064;-71
2021/03/22 00:19:33;;;;;;;5.75;1.95;;;17.30;53.20;;;;;;5055584;28;20021;-71
2021/03/22 00:21:59;;;;;;;7.85;2.10;;;17.30;53.20;;;;;;5054193;28;20025;-71
2021/03/22 00:24:24;;;;;;;5.40;1.75;;;17.30;53.20;;;;;;5054343;28;20036;-71
2021/03/22 00:26:50;;;;;;;6.50;2.25;;;17.30;53.70;;;;;;5054176;28;20029;-71
2021/03/22 00:29:15;;;;;;;8.57;2.17;;;17.20;53.40;;;;;;5053958;28;20265;-72
2021/03/22 00:31:41;;;;;;;6.43;1.70;;;17.20;53.30;;;;;;5054289;28;20492;-71
2021/03/22 00:34:06;;;;;;;6.18;1.70;;;17.20;53.20;;;;;;5054245;28;20024;-71
2021/03/22 00:36:32;;;;;;;7.88;1.92;;;17.10;53.30;;;;;;5054022;28;20108;-71
2021/03/22 00:38:58;;;;;;;7.15;2.42;;;17.10;53.40;;;;;;5053848;28;20055;-72
2021/03/22 00:41:23;;;;;;;11.15;1.90;;;17.10;53.40;;;;;;5053781;28;20025;-71
2021/03/22 00:43:50;;;;;;;6.10;1.90;;;17.00;53.30;;;;;;5053857;28;20021;-71
2021/03/22 00:46:16;;;;;;;7.68;2.45;;;17.00;53.80;;;;;;5053467;28;20031;-71
2021/03/22 00:48:42;;;;;;;6.20;1.98;;;17.00;53.40;;;;;;5053856;28;20119;-71
2021/03/22 00:51:07;;;;;;;5.35;1.70;;;17.00;53.30;;;;;;5053982;28;20099;-71
2021/03/22 00:53:34;;;;;;;8.73;1.73;;;17.00;53.20;;;;;;5053767;28;20037;-71
2021/03/22 00:56:00;;;;;;;8.15;2.00;;;17.00;53.30;;;;;;5035450;28;20021;-72
2021/03/22 00:58:26;;;;;;;5.43;1.73;;;16.90;53.20;;;;;;5035492;28;20427;-72
2021/03/22 01:00:55;;;;;;;7.28;2.35;;;16.90;53.50;;;;;;5053702;28;20029;-71
2021/03/22 01:03:27;;;;;;;9.60;2.30;;;16.80;53.30;;;;;;5053600;28;20481;-71
2021/03/22 01:05:53;;;;;;;7.68;2.05;;;16.80;53.40;;;;;;5053546;28;20017;-72
2021/03/22 01:08:21;;;;;;;7.70;2.15;;;16.80;53.40;;;;;;5052934;28;20031;-71
2021/03/22 01:10:59;;;;;;;5.40;1.98;;;16.70;53.30;;;;;;5053069;28;20025;-71
2021/03/22 01:13:29;;;;;;;6.88;1.92;;;16.70;53.60;;;;;;5052914;28;20094;-71
2021/03/22 01:15:55;;;;;;;8.05;2.28;;;16.60;53.50;;;;;;5053410;28;20032;-71
2021/03/22 01:18:24;;;;;;;6.97;1.92;;;16.60;53.50;;;;;;5053392;28;20126;-71
2021/03/22 01:21:05;;;;;;;9.90;2.50;;;16.60;53.50;;;;;;5053238;28;20028;-72
2021/03/22 01:23:30;;;;;;;7.35;2.05;;;16.60;53.50;;;;;;5035470;28;20021;-73
2021/03/22 01:25:56;;;;;;;7.03;2.03;;;16.60;53.50;;;;;;5053244;28;20029;-73
2021/03/22 01:28:22;;;;;;;6.70;1.88;;;16.50;53.50;;;;;;5053113;28;20025;-72
2021/03/22 01:30:54;;;;;;;5.05;1.52;;;16.50;53.50;;;;;;5052527;28;20025;-73
2021/03/22 01:33:24;;;;;;;10.35;1.95;;;16.50;53.50;;;;;;5053094;28;20088;-73
2021/03/22 01:35:49;;;;;;;8.93;2.40;;;16.40;53.40;;;;;;5052924;28;20484;-73
2021/03/22 01:38:16;;;;;;;9.23;2.30;;;16.50;53.50;;;;;;5052961;28;20033;-73
2021/03/22 01:41:06;;;;;;;9.70;2.40;;;16.40;53.50;;;;;;5052569;28;20111;-73
2021/03/22 01:43:43;;;;;;;8.20;2.13;;;16.40;53.50;;;;;;5052994;28;20037;-73
2021/03/22 01:46:09;;;;;;;6.68;2.00;;;16.40;53.50;;;;;;5053211;28;20417;-73
2021/03/22 01:48:35;;;;;;;7.35;2.25;;;16.40;53.40;;;;;;5052848;28;20040;-73
2021/03/22 01:51:01;;;;;;;5.60;1.73;;;16.40;53.30;;;;;;5052953;28;20036;-74
2021/03/22 01:53:26;;;;;;;6.65;2.20;;;16.30;53.30;;;;;;5052640;28;20508;-72
2021/03/22 01:56:09;;;;;;;8.20;2.35;;;16.40;53.30;;;;;;5052216;28;20029;-72
2021/03/22 01:58:34;;;;;;;7.65;1.92;;;16.30;53.40;;;;;;5052867;28;20021;-73
2021/03/22 02:01:00;;;;;;;5.82;1.50;;;16.20;53.40;;;;;;5052285;28;20481;-73
2021/03/22 02:03:25;;;;;;;7.90;2.10;;;16.20;53.40;;;;;;5052480;28;20025;-73
2021/03/22 02:05:51;;;;;;;8.65;2.17;;;16.30;53.40;;;;;;5034489;28;20381;-73
2021/03/22 02:08:44;;;;;;;6.13;1.88;;;16.30;53.50;;;;;;5051829;28;20108;-72
2021/03/22 02:11:24;;;;;;;5.30;1.80;;;16.20;53.50;;;;;;5048818;28;20147;-73
2021/03/22 02:13:55;;;;;;;8.18;2.08;;;16.20;53.50;;;;;;5052353;28;20041;-73
2021/03/22 02:16:40;;;;;;;7.90;2.60;;;16.20;53.50;;;;;;5052600;28;20032;-73
2021/03/22 02:19:24;;;;;;;7.82;1.90;;;16.20;54.00;;;;;;5052682;28;20025;-73
2021/03/22 02:22:07;;;;;;;8.23;1.75;;;16.20;53.50;;;;;;5052218;28;20025;-74
2021/03/22 02:24:57;;;;;;;7.60;1.77;;;16.20;53.50;;;;;;5052433;28;20024;-74
2021/03/22 02:27:26;;;;;;;5.10;1.67;;;16.10;53.40;;;;;;5051984;28;20056;-74
2021/03/22 02:30:22;;;;;;;6.10;1.98;;;16.20;53.40;;;;;;5051825;28;20025;-73
2021/03/22 02:33:06;;;;;;;4.50;1.70;;;16.10;53.30;;;;;;5051829;28;20107;-73
2021/03/22 02:35:37;;;;;;;6.32;1.63;;;16.20;53.30;;;;;;5051822;28;20024;-73
2021/03/22 02:38:18;;;;;;;7.15;1.92;;;16.10;53.20;;;;;;5051476;28;20033;-72
2021/03/22 02:40:50;;;;;;;6.70;2.00;;;16.10;53.20;;;;;;5051898;28;20492;-72
2021/03/22 02:43:16;;;;;;;7.05;2.20;;;16.10;53.30;;;;;;5051290;28;20022;-73
2021/03/22 02:45:43;;;;;;;6.40;2.40;;;16.00;53.20;;;;;;5051433;28;20497;-73
2021/03/22 02:48:22;;;;;;;7.82;2.15;;;16.00;53.20;;;;;;5051833;28;20024;-73
2021/03/22 02:50:55;;;;;;;6.68;1.92;;;16.10;53.20;;;;;;5051814;28;20025;-71
2021/03/22 02:53:29;;;;;;;7.53;1.98;;;16.00;53.70;;;;;;5051638;28;20359;-71
2021/03/22 02:56:07;;;;;;;7.13;2.60;;;16.00;53.30;;;;;;5050877;28;20062;-71
2021/03/22 02:58:46;;;;;;;7.53;2.10;;;16.00;53.40;;;;;;5051696;28;20056;-71
2021/03/22 03:01:18;;;;;;;6.25;1.92;;;16.00;53.40;;;;;;5051860;28;20539;-71
2021/03/22 03:03:49;;;;;;;7.88;2.15;;;16.00;53.40;;;;;;5051672;28;20021;-72
2021/03/22 03:06:14;;;;;;;6.03;2.22;;;15.90;53.30;;;;;;5051710;28;20107;-72
2021/03/22 03:08:41;;;;;;;5.25;1.70;;;15.90;53.40;;;;;;5051387;28;20029;-72
2021/03/22 03:11:09;;;;;;;7.28;2.22;;;15.90;53.30;;;;;;5033184;28;20029;-71
2021/03/22 03:13:35;;;;;;;6.43;1.90;;;15.90;53.30;;;;;;5051087;28;20115;-72
2021/03/22 03:16:01;;;;;;;7.07;2.05;;;15.90;53.30;;;;;;5051215;28;20061;-72
2021/03/22 03:18:27;;;;;;;6.07;1.95;;;15.90;53.30;;;;;;5051391;28;20017;-73
2021/03/22 03:20:52;;;;;;;6.10;1.80;;;15.90;53.30;;;;;;5051403;28;20365;-73
2021/03/22 03:23:18;;;;;;;4.40;2.00;;;15.90;53.20;;;;;;5051326;28;20059;-72
2021/03/22 03:25:44;;;;;;;7.93;2.35;;;15.80;53.30;;;;;;5051451;28;20361;-72
2021/03/22 03:28:11;;;;;;;8.55;1.90;;;15.90;53.20;;;;;;5051683;28;20018;-72
2021/03/22 03:30:38;;;;;;;6.32;2.58;;;15.90;53.20;;;;;;5051363;28;20402;-71
2021/03/22 03:33:08;;;;;;;6.55;2.35;;;15.90;53.20;;;;;;5051184;28;20029;-72
2021/03/22 03:35:36;;;;;;;4.95;1.98;;;15.90;53.20;;;;;;5051246;28;20017;-71
2021/03/22 03:38:02;;;;;;;4.65;1.80;;;15.80;53.10;;;;;;5050616;28;20029;-71
2021/03/22 03:40:34;;;;;;;8.43;2.15;;;15.80;53.10;;;;;;5051091;28;20017;-72
2021/03/22 03:42:59;;;;;;;4.05;1.73;;;15.80;53.10;;;;;;5051230;28;20389;-72
2021/03/22 03:45:28;;;;;;;6.93;2.30;;;15.80;53.10;;;;;;5051278;28;20017;-72
2021/03/22 03:47:53;;;;;;;8.43;2.30;;;15.80;53.10;;;;;;5051074;28;20029;-71
2021/03/22 03:50:25;;;;;;;5.03;2.08;;;15.80;53.20;;;;;;5050708;28;20032;-72
2021/03/22 03:52:52;;;;;;;4.95;1.75;;;15.70;53.20;;;;;;5050946;28;20033;-71
2021/03/22 03:55:20;;;;;;;5.38;2.05;;;15.70;53.20;;;;;;5054039;28;20376;-71
2021/03/22 03:57:47;;;;;;;3.55;1.63;;;15.70;53.20;;;;;;5054587;28;20100;-71
2021/03/22 04:00:21;;;;;;;6.13;1.95;;;15.70;53.20;;;;;;5037003;28;20485;-72
2021/03/22 04:02:47;;;;;;;4.45;1.77;;;15.70;53.20;;;;;;5054610;28;20025;-71
2021/03/22 04:05:13;;;;;;;5.15;1.90;;;15.70;53.20;;;;;;5054387;28;20033;-71
2021/03/22 04:07:38;;;;;;;6.38;1.80;;;15.70;53.20;;;;;;5054696;28;20082;-71
2021/03/22 04:10:05;;;;;;;5.95;2.28;;;15.70;53.10;;;;;;5054613;28;20033;-71
2021/03/22 04:12:31;;;;;;;5.90;2.10;;;15.70;53.10;;;;;;5054515;28;20029;-72
2021/03/22 04:14:57;;;;;;;7.10;1.80;;;15.70;53.20;;;;;;5054605;28;20021;-71
2021/03/22 04:17:22;;;;;;;6.45;1.95;;;15.70;53.20;;;;;;5054438;28;20071;-73
2021/03/22 04:19:48;;;;;;;7.75;1.92;;;15.70;53.20;;;;;;5054693;28;20078;-71
2021/03/22 04:22:14;;;;;;;5.97;1.92;;;15.60;53.10;;;;;;5054775;28;20024;-71
2021/03/22 04:24:39;;;;;;;6.00;1.85;;;15.60;53.10;;;;;;5054388;28;20058;-71
2021/03/22 04:27:06;;;;;;;4.75;1.63;;;15.60;53.10;;;;;;5054408;28;20446;-71
2021/03/22 04:29:31;;;;;;;4.80;1.65;;;15.60;53.00;;;;;;5054375;28;20112;-72
2021/03/22 04:31:57;;;;;;;4.55;1.80;;;15.60;53.10;;;;;;5054074;28;20132;-71
2021/03/22 04:34:23;;;;;;;4.32;1.38;;;15.60;53.00;;;;;;5053749;28;20083;-71
2021/03/22 04:36:49;;;;;;;7.70;2.20;;;15.60;53.00;;;;;;5053899;28;20025;-71
2021/03/22 04:39:14;;;;;;;4.95;1.70;;;15.60;53.00;;;;;;5054352;28;20033;-72
2021/03/22 04:41:40;;;;;;;5.40;2.15;;;15.60;53.00;;;;;;5054285;28;20028;-71
2021/03/22 04:44:07;;;;;;;5.78;1.67;;;15.60;53.00;;;;;;5054091;28;20037;-71
2021/03/22 04:46:33;;;;;;;7.43;2.28;;;15.60;53.10;;;;;;5053969;28;20032;-72
2021/03/22 04:49:00;;;;;;;6.63;1.92;;;15.60;53.10;;;;;;5053321;28;20037;-71
2021/03/22 04:51:27;;;;;;;5.60;2.00;;;15.50;53.10;;;;;;5053958;28;20044;-71
2021/03/22 04:53:53;;;;;;;6.00;1.77;;;15.50;53.10;;;;;;5053530;28;20419;-71
2021/03/22 04:56:20;;;;;;;4.78;1.52;;;15.50;53.70;;;;;;5053969;28;20024;-71
2021/03/22 04:58:46;;;;;;;5.50;1.88;;;15.50;53.10;;;;;;5053870;28;20055;-71
2021/03/22 05:01:12;;;;;;;6.75;1.95;;;15.50;53.10;;;;;;5036120;28;20417;-71
2021/03/22 05:03:38;;;;;;;5.28;2.10;;;15.50;53.10;;;;;;5053485;28;20023;-72
2021/03/22 05:06:04;;;;;;;7.00;2.05;;;15.50;53.10;;;;;;5052384;28;20431;-71
2021/03/22 05:08:30;;;;;;;5.97;1.80;;;15.50;53.10;;;;;;5052977;28;20028;-71
2021/03/22 05:10:59;;;;;;;5.65;2.40;;;15.50;53.10;;;;;;5053551;28;20496;-71
2021/03/22 05:13:25;;;;;;;4.03;1.90;;;15.50;53.10;;;;;;5053354;28;20025;-71
2021/03/22 05:15:52;;;;;;;6.28;2.35;;;15.50;53.10;;;;;;5053413;28;20079;-72
2021/03/22 05:18:19;;;;;;;6.40;2.13;;;15.50;53.10;;;;;;5053429;28;20021;-72
2021/03/22 05:20:50;;;;;;;5.18;1.95;;;15.50;53.10;;;;;;5053480;28;20103;-72
2021/03/22 05:23:18;;;;;;;7.60;2.28;;;15.50;53.10;;;;;;5053543;28;20021;-71
2021/03/22 05:25:44;;;;;;;6.07;2.05;;;15.50;53.20;;;;;;5053513;28;20047;-72
2021/03/22 05:28:11;;;;;;;5.88;1.75;;;15.40;53.10;;;;;;5035197;28;20485;-71
2021/03/22 05:30:38;;;;;;;6.63;2.35;;;15.40;53.10;;;;;;5053167;28;20162;-72
2021/03/22 05:33:07;;;;;;;5.82;2.10;;;15.40;53.10;;;;;;5052855;28;20519;-72
2021/03/22 05:35:34;;;;;;;6.30;1.88;;;15.40;53.10;;;;;;5052524;28;20078;-72
2021/03/22 05:38:00;;;;;;;6.75;2.38;;;15.40;53.10;;;;;;5053009;28;20068;-72
2021/03/22 05:40:27;;;;;;;5.60;2.00;;;15.40;53.00;;;;;;5053042;28;20025;-71
2021/03/22 05:43:16;;;;;;;6.13;1.77;;;15.40;53.00;;;;;;5052895;28;20107;-71
2021/03/22 05:46:01;;;;;;;4.70;1.73;;;15.40;53.00;;;;;;5052674;28;20025;-71
2021/03/22 05:49:03;;;;;;;5.80;2.00;;;15.40;53.10;;;;;;5052450;28;20025;-72
2021/03/22 05:51:57;;;;;;;7.68;2.30;;;15.40;53.10;;;;;;5034557;28;20047;-71
2021/03/22 05:54:53;;;;;;;5.65;2.15;;;15.40;53.10;;;;;;5052678;28;20063;-71
2021/03/22 05:57:42;;;;;;;7.38;2.45;;;15.40;53.10;;;;;;5052552;28;20095;-71
2021/03/22 06:00:35;;;;;;;5.50;2.00;;;15.40;53.10;;;;;;5052102;28;20035;-71
2021/03/22 06:03:05;;;;;;;7.32;2.60;;;15.40;53.10;;;;;;5042937;28;20043;-71
2021/03/22 06:05:44;;;;;;;4.38;2.13;;;15.40;53.10;;;;;;5052620;28;20362;-71
2021/03/22 06:08:37;;;;;;;5.88;1.83;;;15.40;53.10;;;;;;5052471;28;20028;-72
2021/03/22 06:11:15;;;;;;;5.95;2.42;;;15.40;53.10;;;;;;5052380;28;20029;-71
2021/03/22 06:13:43;;;;;;;4.22;1.83;;;15.30;53.00;;;;;;5052242;28;20044;-71
2021/03/22 06:16:25;;;;;;;4.43;1.75;;;15.40;53.10;;;;;;5052215;28;20028;-72
2021/03/22 06:18:59;;;;;;;4.78;2.10;;;15.30;53.00;;;;;;5051102;28;20025;-71
2021/03/22 06:21:27;;;;;;;4.75;2.10;;;15.40;53.00;;;;;;5051993;28;20029;-70
2021/03/22 06:23:53;;;;;;;6.03;1.92;;;15.30;53.00;;;;;;5052143;28;20025;-70
2021/03/22 06:26:19;;;;;;;8.20;2.22;;;15.30;53.00;;;;;;5052554;28;20048;-71
2021/03/22 06:28:54;;;;;;;7.32;2.08;;;15.30;53.10;;;;;;5051705;28;20370;-72
2021/03/22 06:31:21;;;;;;;3.95;2.25;;;15.30;53.10;;;;;;5052284;28;20053;-71
2021/03/22 06:33:58;;;;;;;6.68;2.28;;;15.30;53.10;;;;;;5052136;28;20068;-72
2021/03/22 06:36:24;;;;;;;6.18;1.83;;;15.30;53.10;;;;;;5052043;28;20534;-71
2021/03/22 06:38:56;;;;;;;4.47;2.00;;;15.30;53.10;;;;;;5052037;28;20036;-71
2021/03/22 06:41:48;;;;;;;5.57;2.15;;;15.30;53.10;;;;;;5051894;28;20370;-71
2021/03/22 06:44:33;;;;;;;4.72;2.22;;;15.30;53.10;;;;;;5051493;28;20047;-72
2021/03/22 06:47:17;;;;;;;6.90;2.28;;;15.30;53.20;;;;;;5033747;28;20515;-71
2021/03/22 06:49:46;;;;;;;6.63;2.78;;;15.30;53.10;;;;;;5051502;28;20056;-72
2021/03/22 06:52:20;;;;;;;5.13;2.50;;;15.30;53.10;;;;;;5049122;28;20021;-71
2021/03/22 06:54:56;;;;;;;4.85;2.63;;;15.20;53.00;;;;;;5046543;28;20039;-72
2021/03/22 06:57:24;;;;;;;5.88;2.55;;;15.30;53.10;;;;;;5033653;28;20528;-71
2021/03/22 07:00:18;;;;;;;4.82;2.53;;;15.20;52.90;;;;;;5051617;28;20032;-71
2021/03/22 07:02:50;;;;;;;5.78;2.15;;;15.40;53.00;;;;;;5031462;28;20033;-72
2021/03/22 07:05:25;;;;;;;5.05;2.10;;;15.50;52.80;;;;;;5034010;28;20022;-72
2021/03/22 07:07:57;;;;;;;6.68;2.10;;;15.70;52.70;;;;;;5051470;28;20051;-72
2021/03/22 07:10:25;;;;;;;6.97;1.90;;;15.90;52.40;;;;;;5051509;28;20043;-73
2021/03/22 07:13:23;;;;;;;5.40;2.20;;;16.10;52.10;;;;;;5050156;28;20048;-71
2021/03/22 07:15:51;;;;;;;6.20;2.08;;;16.20;51.80;;;;;;5051372;28;20059;-72
2021/03/22 07:18:22;;;;;;;5.28;2.35;;;16.50;51.50;;;;;;5051456;28;20485;-74
2021/03/22 07:21:04;;;;;;;4.15;1.95;;;16.70;51.30;;;;;;5050826;28;20032;-74
2021/03/22 07:23:47;;;;;;;7.05;3.35;;;16.90;51.20;;;;;;5051324;28;20026;-72
2021/03/22 07:26:21;;;;;;;5.20;1.77;;;17.00;51.20;;;;;;5050852;28;20072;-72
2021/03/22 07:29:14;;;;;;;5.60;2.63;;;17.20;51.20;;;;;;5051187;28;20393;-72
2021/03/22 07:32:21;;;;;;;4.75;2.25;;;17.10;51.50;;;;;;5055188;28;20027;-72
2021/03/22 07:34:50;;;;;;;10.23;3.15;;;17.30;51.60;;;;;;5026638;28;20103;-73
2021/03/22 07:37:40;;;;;;;6.85;2.75;;;17.40;51.80;;;;;;5037089;28;20047;-72
2021/03/22 07:40:22;;;;;;;9.55;3.10;;;17.40;52.20;;;;;;5054904;28;20021;-72
2021/03/22 07:43:29;;;;;;;8.75;3.00;;;17.50;52.50;;;;;;5054210;28;20048;-72
2021/03/22 07:46:13;;;;;;;7.32;2.70;;;17.50;52.70;;;;;;5049419;28;20025;-72
2021/03/22 07:48:57;;;;;;;13.88;3.67;;;17.60;52.80;;;;;;5048978;28;20040;-72
2021/03/22 07:51:34;;;;;;;15.80;3.63;;;17.60;52.70;;;;;;5053656;28;20082;-72
2021/03/22 07:54:15;;;;;;;9.60;2.90;;;17.80;52.80;;;;;;5036879;28;20178;-72
2021/03/22 07:56:46;;;;;;;14.02;3.55;;;17.80;53.00;;;;;;5054697;28;20021;-72
2021/03/22 07:59:21;;;;;;;11.38;2.92;;;17.90;52.90;;;;;;5054621;28;20086;-72
2021/03/22 08:01:59;;;;;;;10.73;3.53;;;18.00;53.30;;;;;;5054899;28;20061;-72
2021/03/22 08:04:53;;;;;;;8.73;3.17;;;18.00;53.10;;;;;;5053457;28;20431;-72
2021/03/22 08:07:55;;;;;;;7.43;2.85;;;18.00;53.10;;;;;;5047849;28;20520;-69
2021/03/22 08:10:42;;;;;;;8.45;2.78;;;18.10;53.10;;;;;;5049655;28;20416;-70
2021/03/22 08:13:14;;;;;;;7.97;3.05;;;18.10;52.80;;;;;;5052605;28;20567;-70
2021/03/22 08:16:10;;;;;;;15.85;3.53;;;18.10;52.70;;;;;;5052954;28;20396;-71
2021/03/22 08:18:51;;;;;;;7.78;2.88;;;18.10;52.40;;;;;;5025606;28;20116;-70
2021/03/22 08:21:29;;;;;;;13.50;2.70;;;18.10;52.50;;;;;;5053604;28;20033;-73
2021/03/22 08:24:01;;;;;;;10.25;2.60;;;18.20;52.20;;;;;;5053589;28;20029;-72
2021/03/22 08:26:51;;;;;;;8.68;2.85;;;18.30;51.80;;;;;;5053740;28;20104;-71
2021/03/22 08:29:22;;;;;;;7.10;2.50;;;18.40;51.50;;;;;;5053158;28;20485;-71
2021/03/22 08:32:25;;;;;;;10.70;3.20;;;18.50;51.40;;;;;;5054096;28;20025;-72
2021/03/22 08:34:55;;;;;;;5.80;2.97;;;18.50;51.50;;;;;;5053718;28;20151;-72
2021/03/22 08:37:26;;;;;;;13.43;4.18;;;18.50;51.60;;;;;;5053894;28;20040;-72
2021/03/22 08:40:10;;;;;;;11.93;3.63;;;18.40;51.50;;;;;;5054075;28;20021;-72
2021/03/22 08:42:45;;;;;;;7.85;3.30;;;18.50;51.50;;;;;;5033505;28;20489;-72
2021/03/22 08:46:01;;;;;;;7.32;3.20;;;18.40;51.50;;;;;;5037734;28;20362;-72
2021/03/22 08:48:29;;;;;;;9.00;3.45;;;18.40;51.50;;;;;;5020454;28;20520;-72
2021/03/22 08:50:59;;;;;;;7.57;3.33;;;18.40;51.50;;;;;;5053830;28;20493;-72
2021/03/22 08:53:41;;;;;;;6.45;2.97;;;18.40;51.50;;;;;;5034147;28;20064;-72
2021/03/22 08:56:30;;;;;;;8.68;3.22;;;18.30;51.50;;;;;;5043020;28;20052;-72
2021/03/22 08:59:01;;;;;;;8.25;2.85;;;18.30;51.80;;;;;;5053314;28;20489;-72
2021/03/22 09:01:29;;;;;;;9.45;3.38;;;18.30;51.70;;;;;;5053810;28;20025;-72
2021/03/22 09:04:08;;;;;;;8.95;3.22;;;18.30;52.20;;;;;;5053624;28;20021;-72
2021/03/22 09:06:34;;;;;;;8.05;2.97;;;18.20;51.60;;;;;;5053390;28;20025;-72
2021/03/22 09:09:05;;;;;;;9.77;3.00;;;18.20;51.70;;;;;;5053488;28;20053;-72
2021/03/22 09:11:42;;;;;;;10.00;3.08;;;18.20;51.90;;;;;;5052861;28;20040;-72
2021/03/22 09:14:11;;;;;;;8.70;3.47;;;18.20;52.40;;;;;;5052953;28;20081;-73
2021/03/22 09:16:44;;;;;;;9.77;3.63;;;18.10;52.40;;;;;;5053131;28;20021;-72
2021/03/22 09:19:10;;;;;;;7.50;3.00;;;18.10;52.30;;;;;;5053271;28;20437;-72
2021/03/22 09:21:46;;;;;;;7.35;3.10;;;18.00;52.30;;;;;;5052808;28;20154;-72
2021/03/22 09:24:40;;;;;;;7.78;3.40;;;18.00;52.30;;;;;;5053355;28;20032;-72
2021/03/22 09:27:24;;;;;;;9.73;2.65;;;18.00;52.40;;;;;;5052001;28;20040;-72
2021/03/22 09:29:56;;;;;;;9.52;3.35;;;18.00;52.60;;;;;;5052643;28;20024;-72
2021/03/22 09:32:25;;;;;;;6.25;2.97;;;18.00;52.50;;;;;;5035063;28;20400;-72
2021/03/22 09:34:56;;;;;;;8.95;2.83;;;17.90;52.50;;;;;;5052596;28;20396;-72
2021/03/22 09:37:53;;;;;;;6.75;2.70;;;17.90;52.50;;;;;;5052622;28;20116;-72
2021/03/22 09:40:22;;;;;;;6.00;2.67;;;17.90;52.40;;;;;;5052189;28;20075;-72
2021/03/22 09:43:02;;;;;;;7.10;2.90;;;17.80;52.40;;;;;;5034350;28;20132;-72
2021/03/22 09:45:29;;;;;;;5.88;2.95;;;17.80;52.30;;;;;;5052604;28;20036;-72
2021/03/22 09:48:19;;;;;;;7.97;3.05;;;17.80;52.00;;;;;;5052727;28;20017;-72
2021/03/22 09:51:12;;;;;;;7.28;2.83;;;17.80;52.10;;;;;;5052289;28;20013;-72
2021/03/22 09:53:46;;;;;;;7.10;2.85;;;17.70;52.10;;;;;;5051380;28;20041;-72
2021/03/22 09:56:34;;;;;;;7.45;2.97;;;17.70;52.10;;;;;;5051992;28;20504;-72
2021/03/22 09:59:29;;;;;;;5.97;2.55;;;17.60;52.30;;;;;;5041392;28;20031;-72
2021/03/22 10:01:59;;;;;;;7.72;2.90;;;17.60;52.50;;;;;;5051948;28;20155;-72
2021/03/22 10:04:31;;;;;;;6.57;2.60;;;17.60;53.10;;;;;;5052536;28;20404;-72
2021/03/22 10:07:29;;;;;;;6.20;2.67;;;17.50;52.40;;;;;;5052632;28;20021;-72
2021/03/22 10:10:02;;;;;;;7.97;2.55;;;17.60;52.50;;;;;;5038459;28;20040;-72
2021/03/22 10:12:38;;;;;;;7.25;2.78;;;17.50;52.30;;;;;;5052633;28;20029;-72
2021/03/22 10:15:13;;;;;;;5.80;2.50;;;17.50;52.10;;;;;;5051903;28;20059;-72
2021/03/22 10:17:59;;;;;;;6.97;2.70;;;17.50;52.00;;;;;;5051957;28;20036;-72
2021/03/22 10:20:28;;;;;;;;;;;17.40;52.00;;;;;;5032654;28;20025;-72
2021/03/22 10:23:01;;;;;;;6.63;2.42;;;17.40;52.00;;;;;;5035141;28;19913;-72
2021/03/22 10:25:33;;;;;;;6.10;2.58;;;17.40;52.00;;;;;;5052107;28;20044;-72
2021/03/22 10:28:05;;;;;;;6.15;2.70;;;17.40;52.00;;;;;;5052168;28;20381;-72
2021/03/22 10:30:30;;;;;;;4.90;2.60;;;17.40;51.90;;;;;;5032624;28;20036;-72
2021/03/22 10:33:03;;;;;;;7.50;2.60;;;17.30;52.00;;;;;;5049643;28;20049;-71
2021/03/22 10:35:44;;;;;;;7.18;2.90;;;17.40;52.00;;;;;;5050297;28;20040;-71
2021/03/22 10:38:19;;;;;;;10.18;3.42;;;17.30;51.90;;;;;;5051616;28;20036;-72
2021/03/22 10:40:44;;;;;;;6.57;3.15;;;17.30;51.90;;;;;;5051482;28;20078;-71
2021/03/22 10:43:29;;;;;;;6.25;2.50;;;17.30;51.80;;;;;;5051890;28;20017;-72
2021/03/22 10:45:55;;;;;;;7.30;2.58;;;17.30;51.90;;;;;;5051908;28;20115;-72
2021/03/22 10:48:33;;;;;;;9.63;2.70;;;17.20;51.90;;;;;;5051551;28;20487;-72
2021/03/22 10:51:10;;;;;;;7.78;2.72;;;17.20;51.80;;;;;;5051601;28;20018;-72
2021/03/22 10:53:51;;;;;;;4.47;2.35;;;17.20;51.80;;;;;;5051632;28;20101;-72
2021/03/22 10:56:22;;;;;;;6.38;3.05;;;17.20;51.70;;;;;;5033465;28;20025;-72
2021/03/22 10:58:48;;;;;;;9.23;2.75;;;17.20;51.80;;;;;;5051360;28;20452;-72
2021/03/22 11:01:17;;;;;;;6.53;2.40;;;17.20;51.80;;;;;;5051117;28;20029;-71
2021/03/22 11:03:48;;;;;;;6.65;2.53;;;17.20;52.10;;;;;;5050113;28;20507;-71
2021/03/22 11:06:30;;;;;;;6.53;2.22;;;17.20;52.10;;;;;;5051445;28;20020;-73
2021/03/22 11:08:59;;;;;;;5.60;2.20;;;17.20;52.00;;;;;;5051440;28;20060;-71
2021/03/22 11:11:29;;;;;;;5.80;2.03;;;17.20;52.00;;;;;;5051765;28;20638;-72
2021/03/22 11:13:58;;;;;;;7.80;3.13;;;17.20;52.00;;;;;;5051450;28;20107;-72
2021/03/22 11:16:28;;;;;;;6.13;2.40;;;17.10;52.20;;;;;;5051505;28;20049;-72
2021/03/22 11:18:56;;;;;;;5.10;2.25;;;17.10;52.10;;;;;;5050058;28;20032;-72
2021/03/22 11:21:25;;;;;;;5.22;1.77;;;17.20;52.60;;;;;;5051145;28;20025;-72
2021/03/22 11:23:53;;;;;;;4.20;2.17;;;17.30;51.80;;;;;;5051211;28;20018;-72
2021/03/22 11:26:26;;;;;;;5.28;2.17;;;17.40;51.50;;;;;;5050480;28;20020;-72
2021/03/22 11:29:11;;;;;;;6.40;1.83;;;17.60;51.30;;;;;;5017678;28;20148;-72
2021/03/22 11:31:40;;;;;;;4.40;1.83;;;17.80;51.00;;;;;;5048651;28;20040;-72
2021/03/22 11:34:31;;;;;;;5.43;2.05;;;18.00;50.70;;;;;;5051596;28;20033;-72
2021/03/22 11:37:13;;;;;;;2.78;1.63;;;18.10;50.60;;;;;;5051588;28;20033;-72
2021/03/22 11:39:39;;;;;;;5.28;1.73;;;18.30;50.10;;;;;;5051294;28;20055;-72
2021/03/22 11:42:24;;;;;;;5.07;1.73;;;18.50;50.40;;;;;;5051193;28;20036;-72
2021/03/22 11:44:49;;;;;;;5.45;1.55;;;18.70;49.70;;;;;;5051529;28;20104;-72
2021/03/22 11:47:44;;;;;;;5.15;1.50;;;18.90;49.20;;;;;;5050758;28;20148;-72
2021/03/22 11:50:28;;;;;;;4.85;1.80;;;19.20;49.10;;;;;;5050241;28;20501;-72
2021/03/22 11:53:19;;;;;;;3.80;1.80;;;19.40;49.00;;;;;;5051100;28;20040;-72
2021/03/22 11:55:57;;;;;;;6.32;1.70;;;19.60;48.80;;;;;;5051411;28;20013;-72
2021/03/22 11:58:39;;;;;;;5.28;1.65;;;19.80;48.60;;;;;;5051086;28;20038;-72
2021/03/22 12:01:18;;;;;;;10.60;2.35;;;20.30;48.10;;;;;;5050988;28;20022;-72
2021/03/22 12:03:44;;;;;;;9.32;2.05;;;20.10;48.90;;;;;;5051034;28;20107;-72
2021/03/22 12:06:20;;;;;;;6.43;1.98;;;20.00;49.20;;;;;;5051030;28;20032;-72
2021/03/22 12:08:50;;;;;;;6.82;1.58;;;20.00;49.90;;;;;;5051044;28;20049;-72
2021/03/22 12:11:18;;;;;;;7.43;2.40;;;20.00;50.80;;;;;;5050715;28;20099;-72
2021/03/22 12:13:47;;;;;;;7.30;2.78;;;20.10;51.90;;;;;;5049838;28;20029;-72
2021/03/22 12:16:22;;;;;;;7.05;3.05;;;20.20;52.90;;;;;;5051725;28;20506;-72
2021/03/22 12:18:49;;;;;;;6.05;2.00;;;20.30;53.60;;;;;;5050197;28;20554;-72
2021/03/22 12:21:16;;;;;;;5.30;2.30;;;20.40;53.10;;;;;;5054076;28;20037;-78
2021/03/22 12:23:42;;;;;;;9.27;2.40;;;20.50;53.20;;;;;;5054341;28;20013;-75
2021/03/22 12:26:12;;;;;;;5.88;2.10;;;20.70;52.20;;;;;;5054073;28;20076;-72
2021/03/22 12:28:53;;;;;;;9.00;2.00;;;20.70;51.10;;;;;;5048938;28;20078;-73
2021/03/22 12:31:25;;;;;;;7.53;2.65;;;20.70;50.70;;;;;;5050356;28;20028;-70
2021/03/22 12:33:51;;;;;;;12.95;4.75;;;20.70;50.70;;;;;;5054104;28;20474;-71
2021/03/22 12:36:17;;;;;;;15.43;3.53;;;20.70;51.20;;;;;;5053913;28;20027;-71
2021/03/22 12:38:43;;;;;;;18.48;5.07;;;20.70;50.70;;;;;;5036221;28;20053;-71
2021/03/22 12:41:14;;;;;;;17.52;4.70;;;20.60;50.70;;;;;;5054497;28;20057;-71
2021/03/22 12:43:40;;;;;;;11.90;4.20;;;20.60;50.70;;;;;;5054469;28;20021;-71
2021/03/22 12:46:05;;;;;;;17.05;4.65;;;20.70;51.00;;;;;;5036441;28;20086;-71
2021/03/22 12:48:31;;;;;;;13.25;3.72;;;20.60;51.00;;;;;;5053419;28;20067;-71
2021/03/22 12:50:56;;;;;;;12.57;4.00;;;20.60;51.20;;;;;;5035787;28;20028;-71
2021/03/22 12:53:22;;;;;;;9.93;3.75;;;20.60;51.30;;;;;;5053768;28;20507;-70
2021/03/22 12:55:49;;;;;;;11.77;4.10;;;20.50;51.30;;;;;;5036302;28;20059;-71
2021/03/22 12:58:18;;;;;;;9.93;3.72;;;20.50;51.30;;;;;;5053506;28;20396;-72
2021/03/22 13:00:45;;;;;;;9.18;3.70;;;20.40;51.40;;;;;;5053679;28;20025;-72
2021/03/22 13:03:16;;;;;;;9.45;3.58;;;20.40;51.50;;;;;;5053190;28;20033;-71
2021/03/22 13:05:42;;;;;;;9.82;3.55;;;20.40;51.60;;;;;;5052762;28;21698;-72
2021/03/22 13:08:07;;;;;;;10.27;3.60;;;20.30;51.70;;;;;;5053880;28;20021;-71
2021/03/22 13:10:34;;;;;;;8.65;3.28;;;20.30;51.40;;;;;;5053478;28;20133;-71
2021/03/22 13:13:01;;;;;;;9.15;3.15;;;20.20;51.60;;;;;;5052998;28;20033;-71
2021/03/22 13:15:32;;;;;;;11.38;3.70;;;20.20;51.50;;;;;;5053601;28;20051;-71